Time;durP1;ratioP1;P1;durP2;ratioP2;P2;SDS_P1;SDS_P2;PMS_P1;PMS_P2;Temp;Humidity;BMP_temperature;BMP_pressure;BME280_temperature;BME280_humidity;BME280_pressure;Samples;Min_cycle;Max_cycle;Signal;HPM_P1;HPM_P2
2021/05/06 00:11:48;;;;;;;4.00;0.90;;;359.20;1408.00;;;;;;5073652;28;20462;-67
2021/05/06 00:33:00;;;;;;;2.08;0.63;;;359.10;1433.60;;;;;;5073684;28;20097;-66
2021/05/06 00:35:27;;;;;;;2.80;1.00;;;359.00;1433.60;;;;;;5073299;28;20431;-70
2021/05/06 00:56:49;;;;;;;1.30;0.77;;;358.90;1484.80;;;;;;5073244;28;20470;-66
2021/05/06 01:09:31;;;;;;;1.42;0.70;;;359.10;1459.20;;;;;;5073061;28;20473;-71
2021/05/06 01:12:00;;;;;;;2.13;0.70;;;359.10;1459.20;;;;;;5073245;28;20415;-69
2021/05/06 01:15:13;;;;;;;3.97;0.70;;;359.00;1459.20;;;;;;5072907;28;20477;-69
2021/05/06 01:17:39;;;;;;;2.35;0.93;;;359.00;1459.20;;;;;;5072899;28;20342;-67
2021/05/06 01:20:06;;;;;;;2.28;0.80;;;359.00;1433.60;;;;;;5072909;28;20552;-71
2021/05/06 01:22:33;;;;;;;1.85;0.63;;;359.00;1433.60;;;;;;5075569;28;20400;-69
2021/05/06 01:25:00;;;;;;;1.88;0.82;;;359.00;1433.60;;;;;;5076710;28;20461;-70
2021/05/06 01:27:40;;;;;;;3.13;0.80;;;359.10;1433.60;;;;;;5076777;28;20372;-70
2021/05/06 01:33:19;;;;;;;3.35;0.70;;;359.10;1408.00;;;;;;5055605;28;20036;-70
2021/05/06 01:35:59;;;;;;;1.42;0.80;;;359.10;1433.60;;;;;;5075342;28;20350;-67
2021/05/06 02:02:05;;;;;;;3.83;1.17;;;358.90;1433.60;;;;;;5076321;28;20465;-69
2021/05/06 02:04:31;;;;;;;2.30;0.90;;;358.90;1433.60;;;;;;5076245;28;20415;-69
2021/05/06 02:06:57;;;;;;;3.55;1.00;;;358.80;1433.60;;;;;;5075983;28;20373;-68
2021/05/06 02:09:23;;;;;;;2.47;0.90;;;358.90;1408.00;;;;;;5075959;28;20400;-67
2021/05/06 02:11:49;;;;;;;1.60;0.73;;;358.90;1305.60;;;;;;5075943;28;20426;-67
2021/05/06 02:14:16;;;;;;;1.05;0.47;;;358.90;1305.60;;;;;;5075920;28;20408;-67
2021/05/06 02:16:42;;;;;;;1.92;0.47;;;359.00;1305.60;;;;;;5074576;28;20350;-67
2021/05/06 02:19:09;;;;;;;3.63;0.80;;;358.90;1254.40;;;;;;5075899;28;20380;-67
2021/05/06 02:21:35;;;;;;;1.88;0.80;;;358.80;1228.80;;;;;;5075723;28;20032;-67
2021/05/06 02:24:01;;;;;;;2.42;0.70;;;358.80;1280.00;;;;;;5075752;28;20354;-67
2021/05/06 02:26:28;;;;;;;3.53;0.90;;;358.80;1305.60;;;;;;5075664;28;20449;-68
2021/05/06 02:28:54;;;;;;;2.58;1.30;;;358.80;1331.20;;;;;;5074308;28;20362;-67
2021/05/06 02:31:21;;;;;;;5.97;2.03;;;358.70;1254.40;;;;;;5075633;28;20409;-68
2021/05/06 02:33:47;;;;;;;1.65;0.70;;;358.60;1254.40;;;;;;5075015;28;20393;-67
2021/05/06 02:36:14;;;;;;;2.42;0.90;;;358.60;1254.40;;;;;;5075708;28;20411;-67
2021/05/06 02:38:40;;;;;;;1.17;0.65;;;358.60;1280.00;;;;;;5075243;28;20418;-67
2021/05/06 02:41:06;;;;;;;2.15;0.63;;;358.60;1305.60;;;;;;5075330;28;20377;-67
2021/05/06 02:43:32;;;;;;;3.58;0.70;;;358.70;1280.00;;;;;;5075404;28;20454;-67
2021/05/06 02:45:58;;;;;;;3.53;1.27;;;358.70;1280.00;;;;;;5075324;28;20346;-66
2021/05/06 02:48:24;;;;;;;2.83;1.33;;;358.60;1228.80;;;;;;5075219;28;20380;-67
2021/05/06 02:51:02;;;;;;;2.42;0.65;;;358.60;1280.00;;;;;;5075200;28;20028;-67
2021/05/06 02:53:51;;;;;;;1.10;0.60;;;358.40;1228.80;;;;;;5075159;28;20383;-66
2021/05/06 03:04:22;;;;;;;6.03;0.98;;;333.70;1203.20;;;;;;5075561;28;20031;-67
2021/05/06 03:10:01;;;;;;;3.92;0.75;;;333.50;1177.60;;;;;;5074896;28;20496;-66
2021/05/06 03:14:56;;;;;;;3.03;1.70;;;358.40;1203.20;;;;;;5074841;28;20469;-66
2021/05/06 03:22:58;;;;;;;2.63;1.10;;;358.40;1203.20;;;;;;5074961;28;20145;-68
2021/05/06 03:25:27;;;;;;;2.45;0.52;;;358.40;1177.60;;;;;;5074757;28;20334;-66
2021/05/06 03:30:39;;;;;;;1.52;0.70;;;358.60;1203.20;;;;;;5074464;28;20465;-66
2021/05/06 04:18:41;;;;;;;6.57;1.20;;;358.60;1203.20;;;;;;5073664;28;20480;-66
2021/05/06 04:37:25;;;;;;;2.67;0.93;;;333.60;1203.20;;;;;;5073481;28;20027;-66
2021/05/06 04:39:56;;;;;;;1.90;0.80;;;333.60;1203.20;;;;;;5073130;28;20044;-66
2021/05/06 04:46:19;;;;;;;4.35;1.73;;;333.30;1228.80;;;;;;5073927;28;20028;-67
2021/05/06 04:50:20;;;;;;;2.92;1.52;;;333.20;1228.80;;;;;;5059776;28;20086;-66
2021/05/06 04:56:42;;;;;;;6.13;1.92;;;333.00;1305.60;;;;;;5075541;28;20465;-68
2021/05/06 04:59:27;;;;;;;5.25;2.40;;;332.90;1305.60;;;;;;5077164;28;20039;-66
2021/05/06 05:04:40;;;;;;;10.85;4.55;;;332.80;1356.80;;;;;;5077853;28;20028;-66
2021/05/06 05:09:53;;;;;;;5.43;2.10;;;;;;;;;;5077161;28;20111;-66
2021/05/06 05:18:04;;;;;;;1.60;0.55;;;;;;;;;;5077096;28;20039;-68
2021/05/06 05:26:05;;;;;;;1.55;0.80;;;308.10;1356.80;;;;;;5077412;28;20072;-67
2021/05/06 05:28:31;;;;;;;1.95;0.70;;;308.10;1356.80;;;;;;5076758;28;20354;-68
2021/05/06 05:30:57;;;;;;;1.17;0.80;;;308.10;1331.20;;;;;;5076769;28;20504;-66
2021/05/06 05:33:26;;;;;;;2.10;0.70;;;332.80;1356.80;;;;;;5076609;28;20404;-66
2021/05/06 05:43:53;;;;;;;7.10;0.90;;;333.10;1382.40;;;;;;5076560;28;20508;-66
2021/05/06 05:56:43;;;;;;;3.10;0.60;;;333.10;1331.20;;;;;;5076590;28;20527;-66
2021/05/06 05:59:10;;;;;;;1.00;0.60;;;333.10;1331.20;;;;;;5076405;28;20445;-66
2021/05/06 06:01:36;;;;;;;0.85;0.50;;;333.10;1305.60;;;;;;5076012;28;20449;-66
2021/05/06 06:04:03;;;;;;;1.48;0.50;;;333.20;1331.20;;;;;;5076081;28;20511;-66
2021/05/06 06:06:29;;;;;;;5.85;0.73;;;333.30;1305.60;;;;;;5075745;28;20354;-66
2021/05/06 06:08:55;;;;;;;1.60;0.65;;;333.40;1305.60;;;;;;5075380;28;20438;-68
2021/05/06 06:14:50;;;;;;;3.55;0.82;;;333.60;1280.00;;;;;;5076036;28;20054;-70
2021/05/06 06:17:16;;;;;;;7.95;1.95;;;333.60;1280.00;;;;;;5075843;28;20513;-71
2021/05/06 06:19:48;;;;;;;6.45;1.85;;;333.50;1280.00;;;;;;5075847;28;20381;-70
2021/05/06 06:22:17;;;;;;;4.22;1.38;;;333.60;1305.60;;;;;;5075685;28;20532;-70
2021/05/06 06:24:43;;;;;;;4.68;1.73;;;333.60;1280.00;;;;;;5075594;28;20454;-70
2021/05/06 06:27:11;;;;;;;2.17;0.73;;;333.70;1280.00;;;;;;5075713;28;20346;-70
2021/05/06 06:29:37;;;;;;;1.83;0.73;;;333.70;1228.80;;;;;;5075584;28;20475;-66
2021/05/06 06:32:05;;;;;;;2.63;0.98;;;333.70;1228.80;;;;;;5075513;28;20413;-70
2021/05/06 06:34:31;;;;;;;3.50;0.90;;;358.40;1254.40;;;;;;5075840;28;20017;-71
2021/05/06 06:36:57;;;;;;;3.15;1.73;;;358.40;1228.80;;;;;;5075674;28;20025;-66
2021/05/06 06:39:26;;;;;;;4.07;1.13;;;358.50;1228.80;;;;;;5075367;28;20614;-66
2021/05/06 06:41:53;;;;;;;2.75;1.20;;;358.60;1228.80;;;;;;5075491;28;20389;-69
2021/05/06 06:44:23;;;;;;;5.22;1.30;;;358.60;1228.80;;;;;;5075421;28;20373;-69
2021/05/06 06:47:01;;;;;;;6.68;1.33;;;358.60;1254.40;;;;;;5075392;28;20426;-71
2021/05/06 06:49:38;;;;;;;4.32;1.80;;;358.60;1203.20;;;;;;5075304;28;20440;-70
2021/05/06 06:52:06;;;;;;;3.65;1.63;;;358.60;1203.20;;;;;;5075250;28;20452;-67
2021/05/06 06:54:33;;;;;;;5.18;2.92;;;358.60;1228.80;;;;;;5075576;28;20407;-69
2021/05/06 06:56:59;;;;;;;5.22;2.38;;;358.70;1228.80;;;;;;5075309;28;20466;-71
2021/05/06 06:59:27;;;;;;;9.45;2.47;;;358.70;1203.20;;;;;;5075545;28;20479;-72
2021/05/06 07:01:53;;;;;;;3.22;1.80;;;358.80;1177.60;;;;;;5075027;28;20529;-67
2021/05/06 07:04:19;;;;;;;4.07;2.20;;;358.70;1203.20;;;;;;5075452;28;20369;-72
2021/05/06 07:06:45;;;;;;;3.97;1.10;;;358.80;1203.20;;;;;;5075073;28;20480;-71
2021/05/06 07:09:12;;;;;;;1.52;0.90;;;358.80;1203.20;;;;;;5075043;28;20418;-72
2021/05/06 07:11:38;;;;;;;3.47;0.88;;;358.90;1203.20;;;;;;5074951;28;20046;-71
2021/05/06 07:14:05;;;;;;;2.28;0.77;;;358.90;1177.60;;;;;;5074836;28;20385;-67
2021/05/06 07:16:32;;;;;;;4.43;1.17;;;358.90;1177.60;;;;;;5073682;28;20429;-70
2021/05/06 07:18:59;;;;;;;4.35;1.33;;;358.90;1177.60;;;;;;5074737;28;20484;-68
2021/05/06 07:21:26;;;;;;;2.70;1.20;;;359.00;1203.20;;;;;;5074721;28;20496;-72
2021/05/06 07:23:54;;;;;;;6.43;2.50;;;359.00;1177.60;;;;;;5074638;28;20385;-71
2021/05/06 07:26:25;;;;;;;2.13;0.90;;;359.00;1152.00;;;;;;5074664;28;20526;-69
2021/05/06 07:28:53;;;;;;;14.13;6.63;;;359.10;1126.40;;;;;;5467808;22;20056;-68
2021/05/06 07:31:20;;;;;;;4.47;1.60;;;359.10;1177.60;;;;;;5062118;28;20392;-68
2021/05/06 07:33:48;;;;;;;12.45;9.18;;;359.10;1152.00;;;;;;5063680;28;20055;-67
2021/05/06 07:36:16;;;;;;;38.97;29.65;;;359.10;1177.60;;;;;;5063779;28;20045;-67
2021/05/06 07:38:42;;;;;;;95.45;31.80;;;359.10;1177.60;;;;;;5062131;28;20037;-68
2021/05/06 07:41:11;;;;;;;74.68;22.42;;;359.30;1177.60;;;;;;5063046;28;20487;-68
2021/05/06 07:43:37;;;;;;;13.80;7.07;;;359.30;1152.00;;;;;;5064322;28;20101;-68
2021/05/06 07:46:03;;;;;;;3.95;2.15;;;359.30;1152.00;;;;;;5062018;28;20032;-68
2021/05/06 07:48:29;;;;;;;6.68;1.67;;;384.00;1126.40;;;;;;5062961;28;20048;-68
2021/05/06 07:50:56;;;;;;;3.45;0.73;;;384.00;1126.40;;;;;;5063558;28;20104;-68
2021/05/06 07:53:26;;;;;;;5.38;0.80;;;384.00;1100.80;;;;;;5061617;28;20029;-68
2021/05/06 07:55:53;;;;;;;3.03;0.80;;;384.00;1126.40;;;;;;5062543;28;20032;-68
2021/05/06 07:58:19;;;;;;;2.65;1.00;;;384.10;1152.00;;;;;;5063522;28;20025;-68
2021/05/06 08:00:46;;;;;;;7.18;2.28;;;384.10;1100.80;;;;;;5065035;28;20029;-68
2021/05/06 08:03:12;;;;;;;11.63;2.33;;;384.20;1126.40;;;;;;5073813;28;20373;-68
2021/05/06 08:05:38;;;;;;;7.47;1.17;;;384.20;1177.60;;;;;;5067083;28;20033;-68
2021/05/06 08:08:05;;;;;;;10.20;5.05;;;384.20;1177.60;;;;;;5073748;28;20036;-68
2021/05/06 08:10:32;;;;;;;3.00;1.60;;;384.20;1126.40;;;;;;5065208;28;20059;-68
2021/05/06 08:12:59;;;;;;;5.38;0.90;;;384.20;1177.60;;;;;;5053602;28;20393;-68
2021/05/06 08:15:25;;;;;;;2.97;2.00;;;384.20;1152.00;;;;;;5054309;28;20033;-68
2021/05/06 08:17:51;;;;;;;95.28;79.18;;;384.30;1152.00;;;;;;5053787;28;20087;-68
2021/05/06 08:20:19;;;;;;;4.00;2.72;;;384.20;1126.40;;;;;;5053564;28;20033;-68
2021/05/06 08:22:46;;;;;;;106.03;29.25;;;384.20;1126.40;;;;;;5053938;28;20040;-68
2021/05/06 08:25:14;;;;;;;2.95;1.73;;;384.30;1126.40;;;;;;5035953;28;20024;-68
2021/05/06 08:27:41;;;;;;;2.80;1.08;;;384.20;1126.40;;;;;;5054398;28;20068;-68
2021/05/06 08:30:09;;;;;;;4.13;0.80;;;384.20;1126.40;;;;;;5052943;28;20041;-68
2021/05/06 08:32:35;;;;;;;1.77;0.70;;;384.30;1152.00;;;;;;5053536;28;20036;-67
2021/05/06 08:35:01;;;;;;;14.90;1.40;;;384.10;1126.40;;;;;;5053758;28;20483;-68
2021/05/06 08:37:27;;;;;;;3.65;0.73;;;384.10;1100.80;;;;;;5053992;28;20079;-68
2021/05/06 08:39:53;;;;;;;2.17;0.80;;;384.20;1126.40;;;;;;5053323;28;20024;-68
2021/05/06 08:42:20;;;;;;;2.85;0.60;;;384.20;1126.40;;;;;;5053274;28;20025;-68
2021/05/06 08:44:46;;;;;;;3.00;0.80;;;384.20;1126.40;;;;;;5052983;28;20017;-68
2021/05/06 08:47:21;;;;;;;3.85;1.50;;;384.20;1126.40;;;;;;5053346;28;20497;-68
2021/05/06 08:49:50;;;;;;;3.47;1.40;;;384.20;1126.40;;;;;;5063197;28;20028;-68
2021/05/06 08:52:21;;;;;;;4.65;1.70;;;384.20;1100.80;;;;;;5053363;28;20032;-68
2021/05/06 08:54:52;;;;;;;4.53;2.03;;;384.30;1126.40;;;;;;5053273;28;20029;-68
2021/05/06 08:57:25;;;;;;;5.95;2.00;;;384.30;1126.40;;;;;;5053248;28;20465;-68
2021/05/06 08:59:52;;;;;;;2.08;1.40;;;384.30;1126.40;;;;;;5035369;28;20040;-68
2021/05/06 09:02:19;;;;;;;6.75;2.53;;;384.40;1126.40;;;;;;5066999;28;20043;-68
2021/05/06 09:04:45;;;;;;;7.68;1.63;;;384.50;1152.00;;;;;;5073208;28;20017;-68
2021/05/06 09:07:11;;;;;;;3.33;1.65;;;384.40;1126.40;;;;;;5055274;28;20024;-68
2021/05/06 09:09:43;;;;;;;5.65;2.58;;;384.40;1126.40;;;;;;5069713;28;20021;-68
2021/05/06 09:12:09;;;;;;;4.47;1.98;;;384.40;1075.20;;;;;;5053155;28;20056;-68
2021/05/06 09:14:45;;;;;;;5.43;1.13;;;384.30;1100.80;;;;;;5053411;28;20021;-68
2021/05/06 09:17:25;;;;;;;3.67;1.25;;;384.40;1075.20;;;;;;5057957;28;20468;-68
2021/05/06 09:20:06;;;;;;;4.07;1.30;;;384.50;1100.80;;;;;;5073340;28;20035;-68
2021/05/06 09:22:45;;;;;;;2.22;1.00;;;384.50;1075.20;;;;;;5073097;28;20029;-68
2021/05/06 09:25:30;;;;;;;1.85;0.90;;;384.40;1024.00;;;;;;5073278;28;20461;-68
2021/05/06 09:28:09;;;;;;;2.03;0.90;;;384.60;1075.20;;;;;;5072907;28;20025;-68
2021/05/06 09:30:59;;;;;;;4.60;0.90;;;384.90;1075.20;;;;;;5072940;28;20037;-68
2021/05/06 09:33:35;;;;;;;5.28;1.00;;;409.70;1075.20;;;;;;5073315;28;20368;-68
2021/05/06 09:36:17;;;;;;;1.80;0.70;;;409.80;1075.20;;;;;;5072990;28;20028;-68
2021/05/06 09:38:46;;;;;;;14.13;6.97;;;410.00;1049.60;;;;;;5073181;28;20028;-68
2021/05/06 09:41:14;;;;;;;1.88;1.10;;;410.10;1049.60;;;;;;5072877;28;20115;-68
2021/05/06 09:43:42;;;;;;;3.10;0.90;;;410.30;1024.00;;;;;;5075638;28;20487;-68
2021/05/06 09:46:30;;;;;;;4.13;1.20;;;410.10;972.80;;;;;;5076770;28;20028;-68
2021/05/06 09:49:02;;;;;;;6.15;2.30;;;410.10;998.40;;;;;;5077098;28;20380;-68
2021/05/06 09:51:34;;;;;;;3.10;0.95;;;410.20;998.40;;;;;;5076560;28;20075;-68
2021/05/06 09:54:01;;;;;;;5.22;2.42;;;410.30;972.80;;;;;;5076780;28;20032;-68
2021/05/06 09:56:27;;;;;;;4.95;1.75;;;410.30;998.40;;;;;;5076466;28;20043;-68
2021/05/06 09:58:55;;;;;;;3.00;1.33;;;410.40;998.40;;;;;;5076280;28;20500;-68
2021/05/06 10:01:23;;;;;;;1.98;0.77;;;410.50;972.80;;;;;;5076568;28;20039;-68
2021/05/06 10:03:49;;;;;;;8.23;2.20;;;435.20;972.80;;;;;;5076561;28;20044;-68
2021/05/06 10:06:19;;;;;;;5.57;2.40;;;435.20;947.20;;;;;;5076502;28;20017;-68
2021/05/06 10:08:46;;;;;;;1.33;0.60;;;435.20;972.80;;;;;;5076218;28;20108;-68
2021/05/06 10:11:19;;;;;;;3.58;1.00;;;435.20;921.60;;;;;;5075677;28;20039;-68
2021/05/06 10:13:49;;;;;;;2.38;1.13;;;435.40;947.20;;;;;;5076078;28;20039;-68
2021/05/06 10:16:16;;;;;;;3.40;1.05;;;435.40;998.40;;;;;;5076237;28;20174;-68
2021/05/06 10:18:45;;;;;;;2.85;1.55;;;435.40;921.60;;;;;;5076195;28;20399;-68
2021/05/06 10:21:17;;;;;;;4.40;0.95;;;435.50;972.80;;;;;;5075803;28;20027;-68
2021/05/06 10:23:46;;;;;;;4.47;1.30;;;435.50;896.00;;;;;;5075860;28;20480;-68
2021/05/06 10:26:13;;;;;;;8.65;3.05;;;435.60;972.80;;;;;;5057800;28;20376;-68
2021/05/06 10:28:39;;;;;;;2.55;1.17;;;435.60;921.60;;;;;;5065932;28;20080;-68
2021/05/06 10:31:07;;;;;;;1.92;0.90;;;435.70;921.60;;;;;;5063507;28;20036;-68
2021/05/06 10:33:37;;;;;;;5.72;1.90;;;435.70;896.00;;;;;;5068929;28;20032;-69
2021/05/06 10:36:07;;;;;;;2.95;1.30;;;435.60;921.60;;;;;;5064186;28;20033;-68
2021/05/06 10:38:35;;;;;;;2.58;0.93;;;435.70;896.00;;;;;;5063183;28;20056;-68
2021/05/06 10:41:22;;;;;;;5.72;1.85;;;435.70;870.40;;;;;;5046549;28;20036;-68
2021/05/06 10:44:13;;;;;;;2.67;1.02;;;435.80;921.60;;;;;;5064722;28;20032;-68
2021/05/06 10:47:12;;;;;;;4.47;1.17;;;435.90;870.40;;;;;;5054888;28;20476;-68
2021/05/06 10:49:40;;;;;;;3.58;1.15;;;436.00;921.60;;;;;;5064630;28;20036;-69
2021/05/06 10:52:07;;;;;;;2.28;0.60;;;435.90;947.20;;;;;;5065017;28;20052;-68
2021/05/06 10:54:38;;;;;;;2.55;0.60;;;435.80;870.40;;;;;;5063461;28;20037;-68
2021/05/06 10:57:16;;;;;;;2.92;1.00;;;435.90;921.60;;;;;;5062204;28;20033;-68
2021/05/06 10:59:44;;;;;;;4.78;0.65;;;436.00;972.80;;;;;;5066056;28;20036;-68
2021/05/06 11:02:12;;;;;;;1.30;0.70;;;435.90;921.60;;;;;;5075431;28;20040;-68
2021/05/06 11:04:40;;;;;;;6.65;1.10;;;436.00;896.00;;;;;;5075120;28;20095;-67
2021/05/06 11:07:18;;;;;;;6.32;1.02;;;436.00;921.60;;;;;;5075118;28;20032;-68
2021/05/06 11:09:47;;;;;;;4.10;1.42;;;436.10;947.20;;;;;;5075338;28;20029;-68
2021/05/06 11:12:15;;;;;;;1.92;1.00;;;436.10;947.20;;;;;;5075311;28;20478;-68
2021/05/06 11:15:00;;;;;;;7.60;1.00;;;436.00;921.60;;;;;;5074973;28;20482;-68
2021/05/06 11:17:35;;;;;;;24.27;2.30;;;436.00;921.60;;;;;;5074855;28;20387;-69
2021/05/06 11:20:10;;;;;;;6.57;1.30;;;435.90;947.20;;;;;;5072925;28;20107;-68
2021/05/06 11:22:42;;;;;;;6.18;3.70;;;435.90;947.20;;;;;;5064066;28;20083;-68
2021/05/06 11:25:39;;;;;;;3.88;1.70;;;435.90;947.20;;;;;;5045314;28;20040;-68
2021/05/06 11:28:26;;;;;;;3.70;1.75;;;435.90;947.20;;;;;;5065013;28;20021;-68
2021/05/06 11:30:53;;;;;;;2.65;0.85;;;435.90;972.80;;;;;;5068535;28;20145;-68
2021/05/06 11:33:19;;;;;;;2.97;0.80;;;435.80;921.60;;;;;;5075174;28;20040;-68
2021/05/06 11:36:12;;;;;;;2.50;0.60;;;435.90;921.60;;;;;;5074560;28;20472;-68
2021/05/06 11:38:39;;;;;;;1.52;0.52;;;435.90;947.20;;;;;;5066757;28;20029;-69
2021/05/06 11:41:04;;;;;;;4.13;2.67;;;436.10;947.20;;;;;;5054351;28;20116;-69
2021/05/06 11:43:31;;;;;;;6.18;0.98;;;460.80;972.80;;;;;;5036526;28;20118;-68
2021/05/06 11:46:04;;;;;;;3.75;1.27;;;460.90;998.40;;;;;;5058916;28;20021;-68
2021/05/06 11:48:44;;;;;;;2.45;1.50;;;461.00;972.80;;;;;;5062969;28;20032;-68
2021/05/06 11:51:23;;;;;;;3.88;1.13;;;461.10;947.20;;;;;;5064601;28;20065;-68
2021/05/06 11:54:20;;;;;;;7.40;4.20;;;461.20;896.00;;;;;;5054151;28;20488;-68
2021/05/06 11:57:02;;;;;;;6.43;1.80;;;461.20;947.20;;;;;;5054366;28;20053;-68
2021/05/06 11:59:35;;;;;;;35.08;20.05;;;461.10;896.00;;;;;;5054242;28;20025;-68
2021/05/06 12:02:07;;;;;;;4.63;1.50;;;461.10;921.60;;;;;;5053483;28;20123;-68
2021/05/06 12:04:35;;;;;;;4.65;1.20;;;461.10;896.00;;;;;;5052035;28;20262;-68
2021/05/06 12:07:16;;;;;;;43.42;22.10;;;461.10;870.40;;;;;;5052140;28;20032;-68
2021/05/06 12:09:42;;;;;;;5.47;2.28;;;461.10;896.00;;;;;;5052449;28;20025;-68
2021/05/06 12:12:08;;;;;;;1.40;0.70;;;461.10;896.00;;;;;;5052474;28;20075;-69
2021/05/06 12:14:40;;;;;;;3.25;1.35;;;461.20;870.40;;;;;;5052476;28;20488;-68
2021/05/06 12:17:07;;;;;;;3.70;0.75;;;461.20;844.80;;;;;;5052571;28;20098;-69
2021/05/06 12:19:43;;;;;;;1.60;0.73;;;461.20;870.40;;;;;;5053398;28;20029;-68
2021/05/06 12:22:10;;;;;;;2.53;0.90;;;461.30;870.40;;;;;;5053619;28;20033;-68
2021/05/06 12:24:45;;;;;;;2.60;0.80;;;461.30;870.40;;;;;;5053945;28;20074;-68
2021/05/06 12:27:19;;;;;;;3.30;0.98;;;461.30;870.40;;;;;;5053689;28;20025;-68
2021/05/06 12:30:05;;;;;;;25.50;14.73;;;461.40;870.40;;;;;;5053347;28;20367;-68
2021/05/06 12:32:35;;;;;;;5.63;3.45;;;461.50;870.40;;;;;;5036818;28;20094;-68
2021/05/06 12:35:02;;;;;;;3.58;1.00;;;461.50;921.60;;;;;;5053537;28;20022;-68
2021/05/06 12:37:31;;;;;;;3.85;1.25;;;461.60;870.40;;;;;;5053472;28;20028;-68
2021/05/06 12:39:57;;;;;;;3.55;1.15;;;461.60;870.40;;;;;;5053456;28;20536;-68
2021/05/06 12:42:28;;;;;;;5.00;2.63;;;461.50;844.80;;;;;;5053630;28;20041;-68
2021/05/06 12:44:55;;;;;;;4.95;1.65;;;461.60;844.80;;;;;;5053490;28;20028;-68
2021/05/06 12:47:28;;;;;;;5.80;2.10;;;461.60;870.40;;;;;;5053336;28;20029;-68
2021/05/06 12:50:13;;;;;;;5.43;2.15;;;461.60;921.60;;;;;;5053499;28;20127;-68
2021/05/06 12:52:43;;;;;;;8.70;3.65;;;461.60;870.40;;;;;;5053324;28;20025;-68
2021/05/06 12:55:16;;;;;;;3.78;1.58;;;461.70;896.00;;;;;;5053392;28;20499;-68
2021/05/06 12:57:46;;;;;;;2.63;1.27;;;486.40;896.00;;;;;;5053307;28;20354;-69
2021/05/06 13:00:34;;;;;;;7.05;2.20;;;486.40;870.40;;;;;;5053363;28;20053;-68
2021/05/06 13:03:02;;;;;;;6.25;2.58;;;486.50;896.00;;;;;;5053310;28;20389;-69
2021/05/06 13:05:31;;;;;;;2.80;1.20;;;486.60;896.00;;;;;;5053307;28;20013;-68
2021/05/06 13:07:58;;;;;;;2.53;1.40;;;486.60;896.00;;;;;;5053518;28;20033;-68
2021/05/06 13:10:38;;;;;;;4.18;1.40;;;486.60;921.60;;;;;;5053160;28;20025;-68
2021/05/06 13:13:06;;;;;;;10.90;5.72;;;486.60;896.00;;;;;;5053327;28;20021;-68
2021/05/06 13:15:49;;;;;;;4.45;1.90;;;486.70;896.00;;;;;;5053203;28;20017;-68
2021/05/06 13:18:16;;;;;;;4.38;1.10;;;486.70;870.40;;;;;;5057387;28;20029;-68
2021/05/06 13:20:44;;;;;;;3.63;1.38;;;486.70;844.80;;;;;;5057028;28;20036;-69
2021/05/06 13:23:12;;;;;;;6.18;1.30;;;486.70;870.40;;;;;;5057081;28;20035;-68
2021/05/06 13:25:40;;;;;;;5.30;1.20;;;486.70;844.80;;;;;;5057104;28;20045;-68
2021/05/06 13:28:06;;;;;;;6.55;2.05;;;486.70;870.40;;;;;;5057054;28;20419;-68
2021/05/06 13:30:32;;;;;;;3.17;1.88;;;486.80;896.00;;;;;;5056828;28;20064;-68
2021/05/06 13:33:13;;;;;;;9.68;5.85;;;486.80;896.00;;;;;;5057170;28;20032;-68
2021/05/06 13:35:40;;;;;;;2.75;1.30;;;486.90;870.40;;;;;;5057230;28;20017;-68
2021/05/06 13:38:06;;;;;;;7.00;3.60;;;486.90;896.00;;;;;;5056750;28;20079;-68
2021/05/06 13:40:32;;;;;;;9.95;3.97;;;486.90;870.40;;;;;;5056614;28;20029;-68
2021/05/06 13:42:58;;;;;;;8.50;3.90;;;486.90;870.40;;;;;;5056926;28;20032;-68
2021/05/06 13:45:24;;;;;;;5.97;2.33;;;486.90;870.40;;;;;;5056949;28;20104;-68
2021/05/06 13:47:50;;;;;;;4.03;1.20;;;486.90;844.80;;;;;;5056804;28;20480;-68
2021/05/06 13:50:16;;;;;;;4.03;1.83;;;486.90;870.40;;;;;;5056556;28;20484;-68
2021/05/06 13:52:44;;;;;;;2.97;1.20;;;486.80;896.00;;;;;;5056807;28;20053;-68
2021/05/06 13:55:12;;;;;;;4.32;1.60;;;486.80;896.00;;;;;;5056725;28;20025;-68
2021/05/06 13:57:39;;;;;;;2.95;1.50;;;486.80;947.20;;;;;;5057306;28;20044;-68
2021/05/06 14:00:05;;;;;;;2.83;1.40;;;486.80;921.60;;;;;;5056361;28;20472;-67
2021/05/06 14:02:31;;;;;;;2.65;1.30;;;486.80;896.00;;;;;;5056198;28;20068;-68
2021/05/06 14:04:57;;;;;;;3.55;1.30;;;486.80;870.40;;;;;;5056559;28;20020;-67
2021/05/06 14:07:24;;;;;;;3.78;1.52;;;486.80;896.00;;;;;;5056328;28;20036;-68
2021/05/06 14:09:50;;;;;;;4.97;1.75;;;486.80;870.40;;;;;;5056451;28;20167;-68
2021/05/06 14:12:15;;;;;;;4.43;2.15;;;486.80;844.80;;;;;;5056102;28;20488;-68
2021/05/06 14:14:41;;;;;;;11.57;4.57;;;486.80;870.40;;;;;;5056438;28;20029;-68
2021/05/06 14:17:07;;;;;;;8.52;4.63;;;486.90;896.00;;;;;;5056084;28;20477;-68
2021/05/06 14:19:34;;;;;;;7.22;1.50;;;487.00;896.00;;;;;;5056296;28;20032;-68
2021/05/06 14:22:01;;;;;;;11.32;4.00;;;487.10;870.40;;;;;;5056129;28;20108;-68
2021/05/06 14:24:27;;;;;;;2.78;1.42;;;487.10;896.00;;;;;;5055920;28;20024;-68
2021/05/06 14:26:54;;;;;;;5.65;1.90;;;487.00;870.40;;;;;;5055844;28;20029;-68
2021/05/06 14:29:20;;;;;;;1.98;1.30;;;487.10;870.40;;;;;;5054790;28;20053;-68
2021/05/06 14:31:46;;;;;;;5.32;1.40;;;486.90;819.20;;;;;;5055830;28;20122;-68
2021/05/06 14:34:12;;;;;;;5.90;1.85;;;486.90;870.40;;;;;;5055653;28;20108;-68
2021/05/06 14:36:39;;;;;;;8.75;2.50;;;486.90;870.40;;;;;;5055741;28;20053;-68
2021/05/06 14:39:08;;;;;;;4.30;1.60;;;486.90;844.80;;;;;;5055607;28;20472;-68
2021/05/06 14:41:34;;;;;;;4.60;1.70;;;486.90;896.00;;;;;;5055799;28;20029;-68
2021/05/06 14:44:00;;;;;;;4.82;1.70;;;487.10;896.00;;;;;;5055809;28;20061;-68
2021/05/06 14:46:26;;;;;;;3.25;1.30;;;487.20;870.40;;;;;;5055423;28;20421;-68
2021/05/06 14:48:52;;;;;;;3.75;1.50;;;487.20;870.40;;;;;;5055450;28;20477;-68
2021/05/06 14:51:18;;;;;;;4.50;1.63;;;487.20;896.00;;;;;;5055367;28;20075;-67
2021/05/06 14:53:44;;;;;;;3.42;1.90;;;487.20;921.60;;;;;;5055947;28;20032;-67
2021/05/06 14:56:10;;;;;;;3.40;1.95;;;487.20;947.20;;;;;;5055398;28;20025;-67
2021/05/06 14:58:36;;;;;;;3.65;1.67;;;487.30;921.60;;;;;;5055286;28;20376;-68
2021/05/06 15:01:02;;;;;;;5.82;1.60;;;487.30;896.00;;;;;;5055211;28;20080;-68
2021/05/06 15:03:28;;;;;;;4.35;2.63;;;487.30;896.00;;;;;;5055168;28;20051;-68
2021/05/06 15:05:55;;;;;;;3.70;2.05;;;487.30;870.40;;;;;;5055367;28;20052;-68
2021/05/06 15:08:21;;;;;;;6.00;2.20;;;487.30;921.60;;;;;;5055369;28;20021;-68
2021/05/06 15:10:47;;;;;;;4.22;1.75;;;487.20;870.40;;;;;;5037159;28;20384;-68
2021/05/06 15:13:13;;;;;;;8.25;1.90;;;487.30;896.00;;;;;;5054935;28;20017;-68
2021/05/06 15:15:39;;;;;;;6.47;1.50;;;512.00;896.00;;;;;;5055231;28;20025;-68
2021/05/06 15:18:05;;;;;;;3.92;1.70;;;512.00;870.40;;;;;;5054913;28;20048;-68
2021/05/06 15:20:32;;;;;;;3.92;2.00;;;512.00;870.40;;;;;;5055048;28;20059;-68
2021/05/06 15:22:58;;;;;;;4.93;2.10;;;512.00;896.00;;;;;;5054772;28;20033;-68
2021/05/06 15:25:24;;;;;;;5.05;1.73;;;512.00;870.40;;;;;;5055279;28;20025;-68
2021/05/06 15:27:51;;;;;;;7.03;3.35;;;512.00;870.40;;;;;;5054710;28;20470;-68
2021/05/06 15:30:19;;;;;;;6.50;2.65;;;512.00;870.40;;;;;;5054416;28;20127;-68
2021/05/06 15:32:46;;;;;;;4.72;2.40;;;487.30;921.60;;;;;;5054878;28;20025;-68
2021/05/06 15:35:13;;;;;;;5.95;2.13;;;487.20;921.60;;;;;;5054561;28;20484;-68
2021/05/06 15:37:39;;;;;;;4.57;2.13;;;487.20;947.20;;;;;;5054469;28;20025;-68
2021/05/06 15:40:08;;;;;;;6.90;1.88;;;487.20;947.20;;;;;;5053471;28;20060;-68
2021/05/06 15:42:34;;;;;;;8.35;2.55;;;487.10;972.80;;;;;;5054613;28;20381;-68
2021/05/06 15:45:00;;;;;;;6.20;2.47;;;487.10;947.20;;;;;;5054438;28;20025;-68
2021/05/06 15:47:26;;;;;;;5.35;2.10;;;487.10;921.60;;;;;;5054361;28;20477;-68
2021/05/06 15:49:52;;;;;;;4.50;2.13;;;487.10;947.20;;;;;;5054268;28;20028;-68
2021/05/06 15:52:19;;;;;;;5.57;2.53;;;486.90;947.20;;;;;;5054287;28;20075;-68
2021/05/06 15:54:45;;;;;;;5.75;2.40;;;487.00;947.20;;;;;;5054483;28;20021;-68
2021/05/06 15:57:11;;;;;;;6.15;2.60;;;486.90;921.60;;;;;;5054139;28;20025;-68
2021/05/06 15:59:38;;;;;;;7.30;2.53;;;486.90;947.20;;;;;;5054380;28;20021;-68
2021/05/06 16:02:06;;;;;;;5.60;2.08;;;486.80;972.80;;;;;;5054013;28;20043;-68
2021/05/06 16:04:35;;;;;;;4.60;2.45;;;486.80;998.40;;;;;;5054587;28;20025;-68
2021/05/06 16:07:00;;;;;;;7.35;2.90;;;486.70;972.80;;;;;;5054054;28;20024;-68
2021/05/06 16:09:26;;;;;;;8.10;4.07;;;486.70;972.80;;;;;;5054508;28;20105;-68
2021/05/06 16:11:53;;;;;;;6.55;4.43;;;486.70;998.40;;;;;;5054716;28;20360;-68